TimeEST,TemperatureF,Dew PointF,Humidity,Sea Level PressureIn,VisibilityMPH,Wind Direction,Wind SpeedMPH,Gust SpeedMPH,PrecipitationIn,Events,Conditions,WindDirDegrees,DateUTC
12:15 AM,20.3,6.6,56,29.44,10.0,West,6.9,-,N/A,,Overcast,270,2013-02-01 05:15:00
12:35 AM,20.3,5.2,52,29.44,10.0,West,5.8,-,N/A,,Overcast,260,2013-02-01 05:35:00
12:55 AM,20.3,4.3,50,29.45,10.0,West,11.5,21.9,N/A,,Overcast,270,2013-02-01 05:55:00
1:15 AM,20.3,4.6,51,29.46,10.0,West,13.8,18.4,N/A,,Overcast,280,2013-02-01 06:15:00
1:35 AM,20.3,4.8,51,29.46,10.0,West,10.4,18.4,N/A,,Overcast,260,2013-02-01 06:35:00
2:15 AM,19.2,8.4,63,29.47,10.0,WNW,10.4,-,N/A,,Overcast,290,2013-02-01 07:15:00
2:35 AM,18.1,10.0,71,29.48,7.0,WNW,8.1,-,N/A,,Overcast,290,2013-02-01 07:35:00
2:55 AM,17.4,10.4,74,29.49,10.0,WNW,6.9,-,N/A,,Mostly Cloudy,300,2013-02-01 07:55:00
3:15 AM,17.2,9.9,73,29.49,5.0,WNW,10.4,18.4,N/A,Snow,Light Snow,290,2013-02-01 08:15:00
3:35 AM,16.3,9.7,75,29.50,3.0,WSW,13.8,-,N/A,Snow,Light Snow,250,2013-02-01 08:35:00
3:55 AM,14.9,7.7,73,29.51,4.0,SW,12.7,20.7,N/A,,Haze,230,2013-02-01 08:55:00
4:15 AM,14.7,7.2,72,29.52,5.0,SW,9.2,-,N/A,,Haze,230,2013-02-01 09:15:00
4:35 AM,13.6,5.7,71,29.53,5.0,SW,10.4,17.3,N/A,,Haze,230,2013-02-01 09:35:00
4:55 AM,13.1,5.2,71,29.54,5.0,SW,9.2,-,N/A,Snow,Light Snow,230,2013-02-01 09:55:00
5:15 AM,12.6,6.3,76,29.55,2.5,SW,6.9,-,N/A,Snow,Light Snow,230,2013-02-01 10:15:00
5:35 AM,12.2,6.1,76,29.56,3.0,SW,5.8,-,N/A,,Haze,230,2013-02-01 10:35:00
5:55 AM,12.2,5.5,75,29.57,3.0,SW,8.1,18.4,N/A,,Haze,230,2013-02-01 10:55:00
6:15 AM,12.2,4.6,72,29.58,5.0,SW,10.4,16.1,N/A,,Haze,230,2013-02-01 11:15:00
6:35 AM,11.5,4.3,73,29.59,5.0,SW,6.9,16.1,N/A,,Haze,230,2013-02-01 11:35:00
6:55 AM,11.1,3.7,72,29.61,5.0,Calm,Calm,-,N/A,,Haze,0,2013-02-01 11:55:00
7:15 AM,10.9,3.0,70,29.62,7.0,SW,11.5,17.3,N/A,,Overcast,230,2013-02-01 12:15:00
7:35 AM,10.6,2.8,71,29.63,7.0,SW,12.7,18.4,N/A,,Scattered Clouds,230,2013-02-01 12:35:00
7:55 AM,10.9,2.7,69,29.64,10.0,SW,11.5,-,N/A,,Clear,230,2013-02-01 12:55:00
8:15 AM,11.1,2.3,68,29.66,10.0,SW,11.5,16.1,N/A,,Clear,230,2013-02-01 13:15:00
8:35 AM,11.1,1.9,67,29.67,10.0,SW,15.0,20.7,N/A,,Clear,230,2013-02-01 13:35:00
8:55 AM,11.7,1.8,65,29.68,10.0,SW,11.5,20.7,N/A,,Clear,230,2013-02-01 13:55:00
9:15 AM,12.2,1.8,63,29.69,10.0,SW,11.5,-,N/A,,Clear,230,2013-02-01 14:15:00
9:35 AM,13.1,2.1,62,29.71,10.0,SW,11.5,17.3,N/A,,Clear,230,2013-02-01 14:35:00
9:55 AM,12.6,1.9,63,29.72,10.0,SW,8.1,16.1,N/A,,Clear,230,2013-02-01 14:55:00
10:15 AM,13.1,1.9,61,29.73,10.0,SW,11.5,18.4,N/A,,Scattered Clouds,230,2013-02-01 15:15:00
10:35 AM,14.0,2.7,61,29.73,10.0,SW,6.9,20.7,N/A,,Mostly Cloudy,230,2013-02-01 15:35:00
10:55 AM,14.4,1.8,57,29.73,10.0,SW,12.7,19.6,N/A,,Mostly Cloudy,230,2013-02-01 15:55:00
11:15 AM,14.4,0.9,55,29.74,10.0,SW,11.5,19.6,N/A,,Scattered Clouds,230,2013-02-01 16:15:00
11:35 AM,14.7,1.4,56,29.75,10.0,SW,11.5,19.6,N/A,,Scattered Clouds,230,2013-02-01 16:35:00
11:55 AM,15.4,1.9,55,29.75,10.0,SW,9.2,16.1,N/A,,Scattered Clouds,230,2013-02-01 16:55:00
12:15 PM,15.8,2.1,55,29.75,10.0,SW,10.4,17.3,N/A,,Scattered Clouds,230,2013-02-01 17:15:00
12:35 PM,15.8,1.2,53,29.75,10.0,SW,12.7,17.3,N/A,,Mostly Cloudy,230,2013-02-01 17:35:00
12:55 PM,16.2,2.7,55,29.76,10.0,SW,11.5,-,N/A,,Mostly Cloudy,230,2013-02-01 17:55:00
1:15 PM,15.8,1.9,54,29.76,10.0,SW,12.7,18.4,N/A,,Mostly Cloudy,230,2013-02-01 18:15:00
1:35 PM,16.0,2.3,55,29.76,10.0,SW,13.8,20.7,N/A,,Mostly Cloudy,230,2013-02-01 18:35:00
1:55 PM,15.6,2.5,56,29.77,10.0,SW,11.5,16.1,N/A,,Mostly Cloudy,230,2013-02-01 18:55:00
2:15 PM,15.1,1.2,54,29.78,10.0,SW,11.5,19.6,N/A,,Overcast,230,2013-02-01 19:15:00
2:35 PM,14.9,1.0,54,29.78,10.0,SW,15.0,20.7,N/A,,Overcast,230,2013-02-01 19:35:00
2:55 PM,14.9,0.9,54,29.79,10.0,SW,13.8,21.9,N/A,,Overcast,230,2013-02-01 19:55:00
3:15 PM,14.9,1.2,55,29.80,10.0,SW,8.1,18.4,N/A,,Overcast,230,2013-02-01 20:15:00
3:35 PM,15.4,1.9,55,29.80,10.0,SW,9.2,-,N/A,,Overcast,230,2013-02-01 20:35:00
3:55 PM,13.8,0.3,55,29.81,10.0,SW,13.8,19.6,N/A,,Scattered Clouds,230,2013-02-01 20:55:00
4:15 PM,12.9,0.3,57,29.82,10.0,SW,10.4,-,N/A,,Scattered Clouds,230,2013-02-01 21:15:00
4:35 PM,12.2,0.3,59,29.83,10.0,SW,11.5,16.1,N/A,,Clear,230,2013-02-01 21:35:00
4:55 PM,11.7,0.3,60,29.84,10.0,SW,10.4,16.1,N/A,,Clear,230,2013-02-01 21:55:00
5:15 PM,11.3,-0.4,59,29.84,10.0,SW,11.5,17.3,N/A,,Clear,230,2013-02-01 22:15:00
5:35 PM,11.1,-0.9,58,29.86,10.0,SW,6.9,-,N/A,,Clear,230,2013-02-01 22:35:00
5:55 PM,11.3,-1.7,56,29.87,10.0,SW,9.2,23.0,N/A,,Clear,230,2013-02-01 22:55:00
6:15 PM,11.1,-1.8,56,29.88,10.0,SW,17.3,23.0,N/A,,Clear,230,2013-02-01 23:15:00
6:35 PM,10.9,-2.0,56,29.90,10.0,SW,12.7,19.6,N/A,,Clear,230,2013-02-01 23:35:00
6:55 PM,10.4,-2.0,57,29.91,10.0,SW,9.2,17.3,N/A,,Clear,230,2013-02-01 23:55:00
7:15 PM,10.0,-2.2,58,29.93,10.0,SW,6.9,-,N/A,,Clear,230,2013-02-02 00:15:00
7:35 PM,9.5,-2.0,60,29.94,10.0,SW,8.1,-,N/A,,Clear,230,2013-02-02 00:35:00
7:55 PM,9.3,-2.4,59,29.95,10.0,SW,6.9,-,N/A,,Clear,230,2013-02-02 00:55:00
8:15 PM,9.5,-2.9,57,29.96,10.0,Calm,Calm,-,N/A,,Scattered Clouds,0,2013-02-02 01:15:00
8:35 PM,10.0,-2.4,57,29.96,10.0,SW,3.5,-,N/A,,Overcast,230,2013-02-02 01:35:00
8:55 PM,9.9,-2.6,57,29.96,10.0,SW,3.5,-,N/A,,Overcast,230,2013-02-02 01:55:00
9:15 PM,9.7,-1.7,60,29.97,10.0,SW,3.5,-,N/A,,Overcast,230,2013-02-02 02:15:00
9:35 PM,9.9,-1.1,61,29.98,10.0,SW,4.6,-,N/A,,Overcast,230,2013-02-02 02:35:00
9:55 PM,10.0,-0.9,61,29.98,10.0,SW,3.5,-,N/A,,Overcast,230,2013-02-02 02:55:00
10:15 PM,9.7,-0.8,63,29.98,10.0,SW,4.6,-,N/A,,Overcast,230,2013-02-02 03:15:00
10:35 PM,9.9,-0.6,63,29.99,10.0,SW,3.5,-,N/A,,Overcast,230,2013-02-02 03:35:00
10:55 PM,9.5,0.1,66,30.00,10.0,SW,3.5,-,N/A,,Overcast,230,2013-02-02 03:55:00
11:15 PM,9.5,0.3,66,30.01,10.0,SW,4.6,-,N/A,,Overcast,230,2013-02-02 04:15:00
11:35 PM,9.0,-0.2,66,30.02,10.0,SW,3.5,-,N/A,,Overcast,230,2013-02-02 04:35:00
11:55 PM,8.2,-0.0,69,30.02,10.0,SW,4.6,-,N/A,,Scattered Clouds,230,2013-02-02 04:55:00